createdAt,value
2018-11-07T00:00:42.112Z,3.80
2018-11-07T00:03:09.200Z,3.53
2018-11-07T00:05:36.264Z,3.35
2018-11-07T00:08:03.635Z,3.72
2018-11-07T00:10:30.597Z,3.40
2018-11-07T00:12:57.645Z,3.67
2018-11-07T00:15:24.712Z,3.50
2018-11-07T00:17:51.780Z,3.30
2018-11-07T00:20:18.899Z,3.10
2018-11-07T00:22:45.904Z,3.13
2018-11-07T00:25:12.952Z,2.93
2018-11-07T00:27:40.344Z,3.50
2018-11-07T00:30:08.249Z,3.08
2018-11-07T00:32:35.287Z,3.05
2018-11-07T00:35:02.346Z,3.25
2018-11-07T00:37:29.412Z,2.95
2018-11-07T00:39:56.452Z,3.35
2018-11-07T00:42:23.575Z,2.83
2018-11-07T00:44:50.600Z,3.55
2018-11-07T00:47:17.669Z,3.25
2018-11-07T00:49:44.710Z,3.13
2018-11-07T00:52:11.750Z,2.80
2018-11-07T00:54:39.064Z,3.15
2018-11-07T00:57:06.473Z,2.67
2018-11-07T00:59:33.529Z,2.60
2018-11-07T01:02:00.574Z,2.53
2018-11-07T01:04:27.652Z,2.87
2018-11-07T01:06:55.029Z,3.12
2018-11-07T01:09:22.144Z,2.67
2018-11-07T01:11:49.160Z,2.30
2018-11-07T01:14:16.249Z,2.52
2018-11-07T01:16:43.399Z,2.35
2018-11-07T01:19:10.424Z,2.65
2018-11-07T01:21:37.486Z,2.70
2018-11-07T01:24:04.599Z,2.77
2018-11-07T01:26:31.698Z,2.45
2018-11-07T01:28:58.778Z,2.30
2018-11-07T01:31:25.836Z,2.60
2018-11-07T01:33:52.900Z,2.30
2018-11-07T01:36:19.944Z,2.22
2018-11-07T01:38:47.002Z,2.40
2018-11-07T01:41:14.060Z,2.17
2018-11-07T01:43:41.129Z,2.40
2018-11-07T01:46:08.176Z,2.05
2018-11-07T01:48:35.260Z,2.20
2018-11-07T01:51:02.334Z,2.20
2018-11-07T01:53:29.413Z,2.60
2018-11-07T01:55:56.468Z,2.35
2018-11-07T01:58:23.686Z,1.95
2018-11-07T02:00:50.756Z,2.17
2018-11-07T02:03:17.832Z,1.80
2018-11-07T02:05:44.884Z,1.75
2018-11-07T02:08:11.944Z,1.87
2018-11-07T02:10:39.012Z,1.90
2018-11-07T02:13:06.059Z,1.82
2018-11-07T02:15:33.100Z,1.90
2018-11-07T02:18:00.150Z,1.90
2018-11-07T02:20:27.204Z,2.10
2018-11-07T02:22:54.256Z,1.80
2018-11-07T02:25:21.344Z,1.70
2018-11-07T02:27:48.417Z,1.72
2018-11-07T02:33:02.789Z,1.92
2018-11-07T02:35:29.832Z,1.75
2018-11-07T02:37:56.888Z,2.02
2018-11-07T02:40:24.281Z,1.60
2018-11-07T02:42:51.344Z,1.92
2018-11-07T02:45:18.409Z,1.70
2018-11-07T02:47:45.491Z,1.55
2018-11-07T02:50:12.554Z,2.37
2018-11-07T02:52:39.916Z,1.85
2018-11-07T02:55:07.513Z,1.67
2018-11-07T02:57:34.849Z,1.50
2018-11-07T03:00:02.011Z,1.50
2018-11-07T03:02:29.092Z,1.45
2018-11-07T03:04:56.540Z,1.32
2018-11-07T03:07:23.600Z,1.40
2018-11-07T03:09:50.978Z,1.10
2018-11-07T03:12:18.076Z,1.47
2018-11-07T03:14:45.186Z,1.60
2018-11-07T03:17:12.265Z,1.40
2018-11-07T03:19:39.341Z,1.52
2018-11-07T03:22:06.412Z,1.50
2018-11-07T03:24:33.742Z,1.22
2018-11-07T03:27:00.804Z,1.30
2018-11-07T03:29:27.912Z,1.27
2018-11-07T03:31:55.157Z,1.42
2018-11-07T03:34:22.233Z,1.20
2018-11-07T03:36:49.303Z,1.20
2018-11-07T03:39:16.733Z,1.60
2018-11-07T03:41:43.833Z,1.35
2018-11-07T03:44:10.885Z,1.30
2018-11-07T03:46:38.308Z,1.07
2018-11-07T03:49:05.620Z,1.20
2018-11-07T03:51:32.678Z,1.20
2018-11-07T03:53:59.740Z,1.15
2018-11-07T03:56:26.784Z,0.95
2018-11-07T03:58:53.868Z,1.10
2018-11-07T04:01:20.947Z,1.17
2018-11-07T04:03:48.025Z,1.20
2018-11-07T04:06:15.079Z,1.10
2018-11-07T04:08:42.141Z,1.00
2018-11-07T04:11:09.205Z,1.20
2018-11-07T04:13:36.694Z,1.25
2018-11-07T04:16:03.764Z,1.22
2018-11-07T04:18:30.832Z,0.95
2018-11-07T04:20:57.896Z,1.00
2018-11-07T04:23:24.938Z,1.00
2018-11-07T04:25:51.991Z,1.17
2018-11-07T04:28:19.102Z,1.30
2018-11-07T04:30:46.170Z,1.20
2018-11-07T04:33:13.244Z,0.80
2018-11-07T04:35:40.296Z,0.90
2018-11-07T04:38:07.360Z,0.98
2018-11-07T04:40:34.428Z,1.10
2018-11-07T04:43:01.484Z,0.90
2018-11-07T04:45:28.545Z,0.95
2018-11-07T04:47:55.604Z,1.27
2018-11-07T04:50:22.656Z,0.93
2018-11-07T04:52:49.708Z,1.00
2018-11-07T04:55:16.767Z,1.03
2018-11-07T04:57:43.836Z,0.90
2018-11-07T05:00:12.019Z,1.00
2018-11-07T05:02:39.041Z,0.80
2018-11-07T05:05:06.656Z,1.25
2018-11-07T05:07:33.884Z,1.00
2018-11-07T05:10:00.924Z,0.95
2018-11-07T05:12:27.993Z,0.78
2018-11-07T05:14:55.056Z,1.00
2018-11-07T05:17:22.116Z,0.90
2018-11-07T05:19:49.215Z,0.85
2018-11-07T05:22:16.257Z,0.70
2018-11-07T05:24:43.324Z,1.40
2018-11-07T05:27:10.372Z,1.00
2018-11-07T05:29:37.441Z,1.00
2018-11-07T05:32:04.568Z,0.95
2018-11-07T05:34:31.592Z,1.40
2018-11-07T05:36:58.684Z,0.85
2018-11-07T05:39:25.748Z,1.30
2018-11-07T05:41:52.929Z,2.20
2018-11-07T05:44:19.992Z,1.33
2018-11-07T05:46:47.080Z,1.50
2018-11-07T05:49:14.239Z,1.10
2018-11-07T05:51:41.212Z,1.40
2018-11-07T05:54:08.263Z,1.10
2018-11-07T05:56:35.340Z,0.95
2018-11-07T05:59:02.434Z,1.00
2018-11-07T06:01:29.504Z,1.00
2018-11-07T06:03:56.548Z,1.40
2018-11-07T06:06:23.608Z,0.90
2018-11-07T06:08:50.679Z,1.32
2018-11-07T06:11:17.768Z,1.00
2018-11-07T06:13:44.836Z,0.95
2018-11-07T06:16:12.155Z,0.85
2018-11-07T06:18:39.150Z,0.93
2018-11-07T06:21:06.232Z,1.20
2018-11-07T06:23:33.287Z,1.32
2018-11-07T06:26:00.327Z,1.60
2018-11-07T06:28:27.392Z,1.00
2018-11-07T06:30:54.444Z,1.10
2018-11-07T06:33:21.522Z,1.00
2018-11-07T06:35:48.861Z,1.00
2018-11-07T06:38:15.907Z,0.80
2018-11-07T06:40:42.976Z,1.00
2018-11-07T06:43:10.057Z,0.80
2018-11-07T06:45:37.122Z,1.45
2018-11-07T06:48:04.184Z,0.80
2018-11-07T06:50:31.250Z,0.97
2018-11-07T06:52:58.288Z,0.80
2018-11-07T06:55:25.382Z,1.10
2018-11-07T06:57:52.436Z,0.95
2018-11-07T07:00:19.536Z,0.82
2018-11-07T07:02:47.425Z,1.10
2018-11-07T07:05:14.717Z,1.15
2018-11-07T07:07:41.784Z,1.15
2018-11-07T07:10:11.260Z,0.70
2018-11-07T07:12:38.360Z,0.90
2018-11-07T07:15:07.228Z,0.80
2018-11-07T07:17:34.300Z,1.00
2018-11-07T07:20:01.391Z,0.70
2018-11-07T07:22:28.452Z,0.80
2018-11-07T07:24:55.524Z,0.80
2018-11-07T07:27:22.584Z,1.00
2018-11-07T07:29:49.695Z,0.80
2018-11-07T07:32:16.717Z,1.00
2018-11-07T07:34:43.792Z,0.90
2018-11-07T07:37:10.884Z,0.85
2018-11-07T07:39:37.937Z,0.85
2018-11-07T07:42:04.984Z,1.00
